Terminal Aerodrome Forecast
Issued by NWS Missoula, MT

Home | Current Version | Previous Version | Text Only | Print | Product List | Glossary On
Versions: 1 2 3 4 5 6 7 8 9 10 11 12 13 14 15
000
FTUS45 KMSO 242333
TAFMSO
TAF
KMSO 242333Z 2500/2524 VRB04KT 4SM -RASN OVC030
     FM250100 07011KT 2SM -SN BR OVC025
     FM251500 07006KT 4SM BR OVC015
     FM252100 VRB03KT P6SM OVC050=

USA.gov is the U.S. government's official web portal to all federal, state and local government web resources and services.